createdAt,value
2023-04-15T00:02:19.466Z,49.43
2023-04-15T00:04:45.798Z,48.64
2023-04-15T00:07:12.167Z,48.66
2023-04-15T00:09:38.388Z,49.35
2023-04-15T00:12:04.639Z,49.44
2023-04-15T00:14:30.881Z,49.14
2023-04-15T00:16:57.222Z,49.35
2023-04-15T00:19:23.554Z,50.16
2023-04-15T00:21:49.812Z,50.33
2023-04-15T00:24:16.033Z,51.28
2023-04-15T00:26:42.250Z,51.36
2023-04-15T00:29:08.542Z,50.82
2023-04-15T00:31:34.805Z,50.48
2023-04-15T00:34:01.065Z,51.19
2023-04-15T00:36:27.309Z,50.62
2023-04-15T00:38:53.558Z,50.76
2023-04-15T00:41:19.823Z,51.58
2023-04-15T00:43:46.113Z,50.49
2023-04-15T00:46:12.414Z,49.91
2023-04-15T00:48:38.669Z,49.94
2023-04-15T00:51:04.913Z,49.99
2023-04-15T00:53:31.147Z,48.55
2023-04-15T00:55:57.430Z,47.08
2023-04-15T00:58:23.731Z,46.41
2023-04-15T01:00:49.984Z,45.89
2023-04-15T01:03:16.403Z,46.45
2023-04-15T01:05:42.811Z,49.77
2023-04-15T01:08:09.073Z,48.51
2023-04-15T01:10:35.365Z,49.26
2023-04-15T01:13:01.597Z,50.86
2023-04-15T01:15:27.836Z,50.18
2023-04-15T01:20:42.977Z,50.54
2023-04-15T01:23:09.207Z,50.83
2023-04-15T01:25:35.459Z,50.65
2023-04-15T01:28:01.720Z,51.11
2023-04-15T01:30:27.954Z,51.04
2023-04-15T01:32:54.263Z,51.58
2023-04-15T01:35:20.538Z,50.16
2023-04-15T01:37:46.782Z,50.34
2023-04-15T01:40:13.012Z,50.86
2023-04-15T01:42:39.254Z,50.20
2023-04-15T01:45:05.584Z,50.83
2023-04-15T01:47:31.827Z,51.49
2023-04-15T01:49:58.105Z,51.41
2023-04-15T01:52:24.329Z,49.85
2023-04-15T01:54:50.615Z,50.53
2023-04-15T01:57:16.863Z,50.40
2023-04-15T01:59:43.120Z,50.26
2023-04-15T02:02:09.445Z,50.74
2023-04-15T02:04:35.685Z,49.02
2023-04-15T02:07:01.910Z,50.93
2023-04-15T02:09:28.163Z,51.67
2023-04-15T02:11:54.421Z,51.03
2023-04-15T02:14:20.670Z,50.04
2023-04-15T02:16:46.912Z,48.66
2023-04-15T02:19:13.181Z,47.99
2023-04-15T02:21:39.396Z,48.31
2023-04-15T02:24:05.682Z,49.01
2023-04-15T02:26:31.968Z,48.69
2023-04-15T02:28:58.401Z,49.50
2023-04-15T02:31:24.771Z,49.16
2023-04-15T02:33:52.620Z,49.25
2023-04-15T02:36:18.876Z,49.30
2023-04-15T02:38:45.097Z,49.71
2023-04-15T02:41:11.316Z,47.93
2023-04-15T02:43:37.541Z,47.49
2023-04-15T02:46:03.791Z,47.13
2023-04-15T02:48:30.072Z,48.50
2023-04-15T02:50:56.319Z,49.29
2023-04-15T02:53:22.548Z,50.22
2023-04-15T02:55:48.772Z,51.17
2023-04-15T02:58:15.005Z,49.55
2023-04-15T03:00:41.241Z,51.46
2023-04-15T03:03:07.633Z,50.73
2023-04-15T03:05:33.967Z,50.83
2023-04-15T03:08:00.202Z,49.82
2023-04-15T03:10:26.538Z,49.53
2023-04-15T03:12:52.821Z,49.21
2023-04-15T03:15:19.075Z,48.96
2023-04-15T03:17:45.356Z,49.74
2023-04-15T03:20:11.701Z,48.98
2023-04-15T03:22:38.043Z,49.12
2023-04-15T03:25:04.337Z,50.19
2023-04-15T03:27:30.578Z,49.62
2023-04-15T03:29:56.895Z,49.93
2023-04-15T03:32:23.199Z,49.75
2023-04-15T03:34:49.455Z,50.09
2023-04-15T03:37:15.811Z,50.28
2023-04-15T03:39:42.069Z,50.73
2023-04-15T03:42:08.320Z,51.10
2023-04-15T03:44:34.559Z,51.38
2023-04-15T03:47:00.801Z,51.11
2023-04-15T03:49:27.113Z,49.88
2023-04-15T03:51:53.421Z,50.70
2023-04-15T03:54:19.637Z,49.75
2023-04-15T03:56:45.907Z,49.41
2023-04-15T03:59:12.150Z,50.24
2023-04-15T04:01:38.460Z,50.06
2023-04-15T04:04:04.871Z,51.67
2023-04-15T04:06:31.152Z,52.40
2023-04-15T04:08:57.373Z,52.63
2023-04-15T04:11:23.608Z,54.40
2023-04-15T04:13:49.890Z,55.18
2023-04-15T04:16:16.237Z,53.52
2023-04-15T04:18:42.535Z,54.33
2023-04-15T04:21:08.818Z,54.01
2023-04-15T04:23:35.053Z,53.80
2023-04-15T04:26:01.297Z,54.71
2023-04-15T04:28:27.545Z,53.88
2023-04-15T04:30:53.802Z,54.82
2023-04-15T04:33:20.025Z,53.57
2023-04-15T04:35:46.278Z,54.63
2023-04-15T04:38:12.553Z,55.95
2023-04-15T04:40:38.784Z,55.87
2023-04-15T04:43:05.012Z,55.76
2023-04-15T04:45:31.262Z,55.74
2023-04-15T04:47:57.545Z,55.49
2023-04-15T04:50:23.837Z,55.14
2023-04-15T04:52:50.076Z,57.04
2023-04-15T04:55:16.302Z,55.68
2023-04-15T04:57:42.544Z,55.68
2023-04-15T05:00:08.812Z,54.85
2023-04-15T05:02:35.211Z,55.09
2023-04-15T05:05:01.577Z,55.15
2023-04-15T05:07:27.840Z,55.92
2023-04-15T05:09:54.075Z,56.19
2023-04-15T05:12:20.390Z,55.99
2023-04-15T05:14:46.713Z,55.51
2023-04-15T05:17:12.969Z,54.56
2023-04-15T05:19:39.255Z,55.42
2023-04-15T05:22:05.550Z,53.79
2023-04-15T05:24:31.783Z,54.01
2023-04-15T05:26:58.079Z,52.72
2023-04-15T05:29:25.571Z,54.77
2023-04-15T05:31:51.826Z,55.77
2023-04-15T05:34:18.130Z,57.60
2023-04-15T05:36:44.371Z,57.02
2023-04-15T05:39:10.656Z,57.47
2023-04-15T05:41:36.967Z,55.63
2023-04-15T05:44:03.222Z,55.75
2023-04-15T05:46:29.561Z,56.10
2023-04-15T05:48:56.604Z,57.01
2023-04-15T05:51:23.086Z,57.11
2023-04-15T05:53:49.333Z,57.50
2023-04-15T05:56:15.623Z,59.02
2023-04-15T05:58:41.894Z,60.82
2023-04-15T06:01:08.188Z,59.46
2023-04-15T06:03:34.554Z,59.66
2023-04-15T06:06:00.896Z,60.73
2023-04-15T06:08:27.157Z,59.14
2023-04-15T06:10:53.502Z,58.94
2023-04-15T06:13:19.739Z,58.75
2023-04-15T06:15:46.015Z,58.74
2023-04-15T06:18:12.331Z,60.86
2023-04-15T06:20:38.585Z,59.11
2023-04-15T06:23:04.827Z,60.41
2023-04-15T06:25:31.105Z,58.85
2023-04-15T06:27:57.440Z,59.64
2023-04-15T06:30:24.455Z,61.33
2023-04-15T06:32:50.857Z,61.47
2023-04-15T06:35:17.095Z,61.50
2023-04-15T06:37:43.325Z,62.27
2023-04-15T06:40:09.590Z,61.71
2023-04-15T06:42:35.922Z,64.38
2023-04-15T06:45:02.203Z,65.67
2023-04-15T06:47:28.684Z,64.63
2023-04-15T06:49:54.963Z,62.23
2023-04-15T06:52:21.221Z,60.99
2023-04-15T06:54:47.484Z,59.39
2023-04-15T06:57:13.749Z,58.37
2023-04-15T06:59:39.974Z,58.93
2023-04-15T07:02:06.284Z,59.72
2023-04-15T07:04:32.648Z,59.65
2023-04-15T07:06:58.941Z,57.51
2023-04-15T07:09:25.163Z,58.21
2023-04-15T07:11:51.408Z,58.86
2023-04-15T07:14:17.714Z,58.87
2023-04-15T07:16:44.060Z,56.42
2023-04-15T07:19:10.346Z,58.92
2023-04-15T07:21:36.615Z,60.07
2023-04-15T07:24:02.855Z,58.62
2023-04-15T07:26:29.126Z,60.08
2023-04-15T07:28:55.401Z,61.98
2023-04-15T07:31:21.629Z,60.09
2023-04-15T07:33:47.943Z,61.08
2023-04-15T07:36:14.222Z,62.34
2023-04-15T07:38:40.490Z,62.46
2023-04-15T07:41:06.770Z,62.92
2023-04-15T07:43:33.026Z,62.30
2023-04-15T07:45:59.279Z,59.67
2023-04-15T07:48:25.524Z,58.20
2023-04-15T07:50:51.751Z,57.83
2023-04-15T07:53:17.982Z,59.81
2023-04-15T07:55:44.225Z,59.46
2023-04-15T07:58:10.462Z,60.85
2023-04-15T08:00:36.700Z,62.31
2023-04-15T08:03:03.083Z,61.10
2023-04-15T08:05:29.538Z,63.17
2023-04-15T08:07:55.789Z,63.83
2023-04-15T08:10:22.059Z,64.20
2023-04-15T08:12:48.397Z,63.12
2023-04-15T08:15:14.702Z,63.19
2023-04-15T08:17:40.991Z,63.94
2023-04-15T08:20:07.302Z,64.32
2023-04-15T08:22:34.700Z,64.86
2023-04-15T08:25:00.957Z,63.02
2023-04-15T08:27:27.188Z,62.53
2023-04-15T08:29:53.466Z,64.49
2023-04-15T08:32:19.795Z,66.55
2023-04-15T08:34:46.072Z,66.88
2023-04-15T08:37:12.777Z,68.03
2023-04-15T08:39:39.162Z,69.58
2023-04-15T08:42:05.374Z,71.13
2023-04-15T08:44:31.647Z,73.21
2023-04-15T08:46:57.969Z,71.57
2023-04-15T08:49:24.220Z,72.30
2023-04-15T08:51:50.470Z,69.51
2023-04-15T08:54:16.738Z,70.32
2023-04-15T08:56:42.976Z,70.86
2023-04-15T08:59:09.231Z,69.25
2023-04-15T09:01:35.587Z,67.98
2023-04-15T09:04:01.930Z,66.16
2023-04-15T09:06:28.208Z,67.39
2023-04-15T09:08:54.495Z,67.12
2023-04-15T09:11:20.756Z,64.03
2023-04-15T09:13:47.032Z,65.12
2023-04-15T09:16:13.314Z,63.46
2023-04-15T09:18:39.568Z,64.05
2023-04-15T09:21:05.808Z,64.37
2023-04-15T09:23:32.111Z,62.97
2023-04-15T09:25:58.395Z,59.89
2023-04-15T09:28:24.647Z,59.51
2023-04-15T09:30:51.011Z,61.90
2023-04-15T09:33:17.382Z,65.30
2023-04-15T09:35:43.597Z,66.86
2023-04-15T09:38:09.949Z,67.77
2023-04-15T09:40:36.488Z,67.77
2023-04-15T09:43:02.723Z,68.84
2023-04-15T09:45:29.640Z,68.26
2023-04-15T09:47:57.116Z,66.01
2023-04-15T09:50:24.655Z,66.13
2023-04-15T09:52:50.908Z,64.15
2023-04-15T09:55:17.205Z,63.85
2023-04-15T09:57:43.471Z,64.57
2023-04-15T10:00:09.710Z,63.20
2023-04-15T10:02:36.138Z,61.80
2023-04-15T10:05:02.508Z,62.94
2023-04-15T10:07:28.756Z,62.49
2023-04-15T10:09:55.045Z,61.62
2023-04-15T10:12:21.321Z,63.00
2023-04-15T10:14:47.573Z,63.55
2023-04-15T10:17:13.799Z,62.87
2023-04-15T10:19:40.079Z,64.44
2023-04-15T10:22:06.340Z,64.41
2023-04-15T10:24:32.592Z,65.74
2023-04-15T10:26:58.870Z,62.04
2023-04-15T10:29:25.124Z,60.59
2023-04-15T10:31:51.404Z,62.54
2023-04-15T10:34:17.637Z,59.45
2023-04-15T10:36:43.894Z,61.41
2023-04-15T10:39:10.176Z,60.83
2023-04-15T10:41:36.405Z,61.76
2023-04-15T10:44:02.828Z,65.17
2023-04-15T10:46:29.279Z,66.25
2023-04-15T10:48:55.979Z,66.55
2023-04-15T10:51:22.287Z,62.91
2023-04-15T10:53:48.535Z,65.07
2023-04-15T10:56:14.756Z,66.85
2023-04-15T10:58:40.999Z,68.31
2023-04-15T11:01:07.253Z,69.80
2023-04-15T11:03:33.604Z,68.74
2023-04-15T11:05:59.976Z,68.44
2023-04-15T11:08:26.235Z,68.72
2023-04-15T11:10:52.474Z,67.65
2023-04-15T11:13:18.716Z,66.22
2023-04-15T11:15:45.026Z,67.34
2023-04-15T11:18:11.378Z,65.21
2023-04-15T11:20:37.723Z,64.00
2023-04-15T11:23:14.141Z,65.79
2023-04-15T11:25:41.765Z,66.61
2023-04-15T11:28:08.092Z,64.87
2023-04-15T11:30:34.388Z,67.25
2023-04-15T11:33:00.669Z,65.65
2023-04-15T11:35:26.928Z,65.38
2023-04-15T11:37:53.203Z,62.48
2023-04-15T11:40:19.478Z,60.89
2023-04-15T11:42:49.524Z,59.99
2023-04-15T11:45:16.420Z,60.78
2023-04-15T11:47:42.685Z,59.50
2023-04-15T11:50:08.917Z,59.04
2023-04-15T11:52:35.159Z,59.98
2023-04-15T11:55:01.521Z,59.38
2023-04-15T11:57:27.851Z,61.30
2023-04-15T11:59:54.134Z,59.79
2023-04-15T12:02:20.543Z,59.82
2023-04-15T12:04:46.897Z,58.60
2023-04-15T12:07:13.226Z,59.95
2023-04-15T12:09:39.450Z,63.44
2023-04-15T12:12:05.678Z,59.67
2023-04-15T12:14:31.919Z,60.65
2023-04-15T12:16:58.509Z,61.34
2023-04-15T12:19:24.992Z,59.85
2023-04-15T12:21:51.285Z,60.94
2023-04-15T12:24:17.571Z,61.63
2023-04-15T12:26:43.792Z,62.15
2023-04-15T12:29:10.040Z,58.90
2023-04-15T12:31:36.317Z,59.62
2023-04-15T12:34:02.770Z,61.35
2023-04-15T12:36:29.159Z,58.73
2023-04-15T12:38:56.622Z,59.26
2023-04-15T12:41:23.071Z,57.73
2023-04-15T12:43:49.308Z,59.18
2023-04-15T12:46:15.609Z,58.68
2023-04-15T12:48:41.886Z,59.29
2023-04-15T12:51:08.133Z,60.15
2023-04-15T12:53:34.367Z,60.39
2023-04-15T12:56:00.614Z,58.66
2023-04-15T12:58:26.900Z,58.09
2023-04-15T13:00:53.205Z,58.95
2023-04-15T13:03:19.478Z,56.73
2023-04-15T13:05:45.883Z,56.21
2023-04-15T13:08:12.178Z,56.27
2023-04-15T13:10:38.416Z,57.49
2023-04-15T13:13:04.696Z,56.29
2023-04-15T13:15:31.026Z,56.33
2023-04-15T13:17:57.272Z,56.38
2023-04-15T13:20:23.576Z,55.85
2023-04-15T13:22:49.852Z,59.81
2023-04-15T13:25:16.095Z,57.94
2023-04-15T13:27:42.376Z,58.36
2023-04-15T13:30:08.609Z,57.86
2023-04-15T13:32:34.933Z,60.48
2023-04-15T13:35:01.207Z,59.65
2023-04-15T13:37:27.463Z,57.28
2023-04-15T13:39:53.730Z,58.57
2023-04-15T13:42:20.037Z,56.69
2023-04-15T13:44:46.257Z,56.49
2023-04-15T13:47:12.476Z,54.31
2023-04-15T13:49:38.720Z,56.57
2023-04-15T13:52:04.950Z,58.95
2023-04-15T13:54:37.684Z,57.61
2023-04-15T13:57:04.420Z,58.57
2023-04-15T13:59:30.651Z,58.09
2023-04-15T14:01:56.915Z,56.19
2023-04-15T14:04:23.364Z,56.07
2023-04-15T14:06:49.762Z,58.12
2023-04-15T14:09:16.017Z,56.14
2023-04-15T14:11:42.269Z,55.66
2023-04-15T14:14:08.528Z,53.95
2023-04-15T14:16:35.016Z,56.29
2023-04-15T14:19:01.462Z,58.05
2023-04-15T14:21:27.737Z,57.50
2023-04-15T14:23:53.960Z,56.49
2023-04-15T14:26:20.187Z,56.39
2023-04-15T14:28:46.476Z,58.44
2023-04-15T14:31:12.759Z,56.76
2023-04-15T14:33:39.045Z,57.14
2023-04-15T14:36:05.321Z,57.42
2023-04-15T14:38:31.546Z,56.70
2023-04-15T14:40:57.799Z,55.44
2023-04-15T14:43:24.061Z,53.93
2023-04-15T14:45:50.336Z,55.03
2023-04-15T14:48:16.575Z,56.25
2023-04-15T14:50:42.850Z,55.69
2023-04-15T14:53:09.280Z,54.33
2023-04-15T14:55:35.601Z,55.40
2023-04-15T14:58:01.923Z,56.59
2023-04-15T15:00:28.239Z,56.72
2023-04-15T15:02:54.581Z,55.92
2023-04-15T15:05:21.057Z,55.36
2023-04-15T15:07:47.417Z,55.89
2023-04-15T15:10:13.836Z,56.31
2023-04-15T15:12:40.072Z,55.82
2023-04-15T15:15:15.655Z,54.03
2023-04-15T15:17:46.033Z,52.65
2023-04-15T15:20:12.294Z,54.98
2023-04-15T15:22:38.541Z,54.60
2023-04-15T15:25:04.786Z,56.12
2023-04-15T15:27:31.051Z,56.78
2023-04-15T15:29:57.298Z,59.62
2023-04-15T15:32:23.623Z,57.91
2023-04-15T15:34:49.935Z,57.46
2023-04-15T15:37:16.276Z,58.60
2023-04-15T15:39:42.528Z,56.13
2023-04-15T15:42:08.785Z,57.44
2023-04-15T15:44:35.023Z,57.76
2023-04-15T15:47:01.360Z,56.64
2023-04-15T15:49:27.796Z,58.64
2023-04-15T15:51:54.071Z,58.02
2023-04-15T15:54:20.327Z,59.09
2023-04-15T15:56:46.566Z,56.75
2023-04-15T15:59:12.857Z,56.78
2023-04-15T16:01:39.182Z,59.58
2023-04-15T16:04:05.608Z,59.59
2023-04-15T16:06:34.442Z,60.61
2023-04-15T16:09:01.562Z,59.13
2023-04-15T16:11:27.937Z,60.08
2023-04-15T16:13:54.214Z,59.99
2023-04-15T16:16:20.544Z,58.21
2023-04-15T16:18:46.813Z,55.57
2023-04-15T16:21:13.090Z,54.48
2023-04-15T16:23:39.821Z,53.71
2023-04-15T16:26:06.107Z,54.21
2023-04-15T16:28:32.340Z,52.51
2023-04-15T16:30:58.632Z,53.05
2023-04-15T16:33:24.842Z,54.81
2023-04-15T16:35:51.107Z,56.83
2023-04-15T16:38:17.488Z,54.33
2023-04-15T16:40:43.717Z,55.23
2023-04-15T16:43:09.957Z,55.97
2023-04-15T16:45:36.281Z,55.25
2023-04-15T16:48:02.570Z,55.40
2023-04-15T16:50:28.897Z,55.51
2023-04-15T16:52:55.173Z,54.10
2023-04-15T16:55:21.421Z,53.95
2023-04-15T16:58:01.868Z,52.64
2023-04-15T17:00:30.083Z,53.66
2023-04-15T17:02:56.531Z,53.23
2023-04-15T17:05:22.942Z,53.97
2023-04-15T17:07:49.196Z,54.11
2023-04-15T17:10:15.456Z,56.40
2023-04-15T17:12:41.697Z,54.93
2023-04-15T17:15:07.961Z,56.90
2023-04-15T17:17:34.233Z,56.95
2023-04-15T17:20:00.510Z,57.82
2023-04-15T17:22:26.772Z,57.14
2023-04-15T17:24:53.039Z,59.09
2023-04-15T17:27:19.299Z,57.90
2023-04-15T17:29:45.554Z,59.11
2023-04-15T17:32:11.852Z,56.48
2023-04-15T17:34:49.696Z,59.07
2023-04-15T17:37:17.500Z,58.53
2023-04-15T17:39:43.865Z,58.24
2023-04-15T17:42:10.122Z,58.65
2023-04-15T17:44:36.429Z,59.47
2023-04-15T17:47:02.677Z,58.29
2023-04-15T17:49:28.932Z,59.01
2023-04-15T17:51:55.212Z,58.99
2023-04-15T17:54:21.455Z,58.92
2023-04-15T17:56:47.695Z,58.06
2023-04-15T17:59:13.941Z,56.54
2023-04-15T18:01:40.254Z,56.97
2023-04-15T18:04:06.855Z,57.68
2023-04-15T18:06:33.449Z,56.51
2023-04-15T18:08:59.698Z,59.08
2023-04-15T18:11:25.942Z,60.99
2023-04-15T18:13:52.185Z,59.14
2023-04-15T18:16:18.497Z,58.55
2023-04-15T18:18:44.824Z,59.86
2023-04-15T18:21:13.433Z,60.63
2023-04-15T18:23:40.007Z,59.39
2023-04-15T18:26:06.248Z,59.98
2023-04-15T18:28:32.536Z,58.49
2023-04-15T18:30:58.851Z,61.36
2023-04-15T18:33:25.086Z,63.26
2023-04-15T18:35:51.349Z,60.53
2023-04-15T18:38:17.650Z,59.30
2023-04-15T18:40:43.894Z,59.76
2023-04-15T18:43:10.173Z,62.58
2023-04-15T18:45:36.474Z,62.74
2023-04-15T18:48:02.784Z,62.73
2023-04-15T18:50:29.128Z,62.71
2023-04-15T18:52:55.369Z,59.27
2023-04-15T18:55:21.625Z,60.04
2023-04-15T18:57:48.109Z,59.94
2023-04-15T19:00:14.965Z,60.27
2023-04-15T19:02:41.261Z,59.35
2023-04-15T19:05:07.548Z,59.15
2023-04-15T19:07:33.835Z,56.21
2023-04-15T19:10:00.139Z,62.04
2023-04-15T19:12:26.385Z,61.17
2023-04-15T19:14:52.694Z,60.25
2023-04-15T19:17:18.978Z,60.55
2023-04-15T19:19:45.202Z,60.69
2023-04-15T19:22:11.444Z,62.25
2023-04-15T19:24:37.726Z,60.82
2023-04-15T19:27:04.032Z,59.47
2023-04-15T19:29:30.279Z,58.88
2023-04-15T19:31:56.516Z,61.89
2023-04-15T19:34:22.813Z,63.05
2023-04-15T19:36:49.097Z,63.23
2023-04-15T19:39:15.339Z,61.73
2023-04-15T19:41:41.583Z,60.11
2023-04-15T19:44:07.861Z,63.14
2023-04-15T19:46:34.197Z,63.75
2023-04-15T19:49:00.541Z,62.26
2023-04-15T19:51:26.759Z,61.39
2023-04-15T19:53:54.032Z,64.25
2023-04-15T19:56:20.315Z,64.34
2023-04-15T19:58:46.562Z,65.35
2023-04-15T20:01:12.820Z,64.14
2023-04-15T20:03:39.203Z,62.41
2023-04-15T20:06:05.586Z,62.02
2023-04-15T20:08:31.851Z,61.57
2023-04-15T20:10:58.073Z,65.33
2023-04-15T20:13:24.353Z,67.70
2023-04-15T20:15:50.603Z,65.35
2023-04-15T20:18:16.942Z,64.78
2023-04-15T20:20:43.185Z,63.25
2023-04-15T20:23:09.404Z,63.09
2023-04-15T20:25:35.659Z,63.49
2023-04-15T20:28:01.958Z,61.94
2023-04-15T20:30:28.187Z,61.82
2023-04-15T20:32:54.494Z,64.13
2023-04-15T20:35:20.816Z,64.79
2023-04-15T20:37:47.056Z,62.70
2023-04-15T20:40:13.312Z,62.05
2023-04-15T20:42:39.545Z,61.50
2023-04-15T20:45:05.763Z,61.65
2023-04-15T20:47:32.038Z,62.66
2023-04-15T20:49:58.344Z,60.83
2023-04-15T20:52:24.624Z,62.15
2023-04-15T20:54:50.864Z,60.22
2023-04-15T20:57:17.125Z,60.90
2023-04-15T20:59:43.409Z,60.84
2023-04-15T21:02:09.857Z,61.82
2023-04-15T21:04:36.242Z,62.72
2023-04-15T21:07:02.505Z,62.63
2023-04-15T21:09:28.749Z,64.92
2023-04-15T21:12:01.281Z,61.99
2023-04-15T21:14:28.090Z,62.03
2023-04-15T21:16:54.336Z,61.75
2023-04-15T21:19:20.624Z,63.33
2023-04-15T21:21:46.875Z,64.04
2023-04-15T21:24:13.130Z,62.95
2023-04-15T21:26:39.352Z,63.07
2023-04-15T21:29:07.864Z,60.14
2023-04-15T21:31:35.946Z,62.64
2023-04-15T21:34:02.188Z,62.77
2023-04-15T21:36:28.447Z,62.19
2023-04-15T21:38:54.704Z,62.67
2023-04-15T21:41:20.987Z,66.38
2023-04-15T21:43:47.288Z,67.04
2023-04-15T21:46:23.229Z,68.22
2023-04-15T21:48:51.410Z,64.70
2023-04-15T21:51:17.674Z,62.39
2023-04-15T21:53:43.915Z,62.84
2023-04-15T21:56:10.214Z,61.49
2023-04-15T21:58:36.450Z,61.18
2023-04-15T22:01:02.790Z,60.54
2023-04-15T22:03:29.178Z,60.61
2023-04-15T22:05:57.299Z,60.29
2023-04-15T22:08:23.591Z,59.03
2023-04-15T22:10:49.828Z,59.24
2023-04-15T22:13:16.094Z,60.16
2023-04-15T22:15:42.385Z,62.07
2023-04-15T22:18:08.610Z,61.70
2023-04-15T22:20:34.883Z,64.37
2023-04-15T22:23:01.124Z,63.64
2023-04-15T22:25:27.351Z,63.76
2023-04-15T22:27:53.580Z,60.59
2023-04-15T22:30:19.821Z,60.35
2023-04-15T22:32:46.103Z,60.87
2023-04-15T22:35:12.432Z,60.47
2023-04-15T22:37:38.672Z,61.95
2023-04-15T22:40:04.936Z,61.55
2023-04-15T22:42:31.213Z,62.25
2023-04-15T22:44:57.468Z,61.56
2023-04-15T22:47:23.782Z,62.74
2023-04-15T22:49:50.056Z,62.32
2023-04-15T22:52:29.396Z,63.34
2023-04-15T22:54:56.580Z,63.23
2023-04-15T22:57:22.855Z,58.45
2023-04-15T22:59:49.125Z,58.12
2023-04-15T23:02:15.485Z,61.11
2023-04-15T23:04:41.977Z,59.81
2023-04-15T23:07:08.286Z,60.67
2023-04-15T23:09:34.532Z,59.98
2023-04-15T23:12:00.779Z,60.40
2023-04-15T23:14:27.011Z,60.85
2023-04-15T23:16:53.264Z,60.26
2023-04-15T23:19:19.502Z,59.70
2023-04-15T23:21:45.792Z,59.15
2023-04-15T23:24:12.208Z,58.92
2023-04-15T23:26:38.443Z,59.55
2023-04-15T23:29:04.743Z,59.49
2023-04-15T23:31:31.013Z,58.86
2023-04-15T23:33:57.301Z,58.05
2023-04-15T23:36:23.563Z,57.36
2023-04-15T23:38:49.774Z,56.76
2023-04-15T23:41:16.020Z,57.31
2023-04-15T23:43:42.287Z,56.86
2023-04-15T23:46:08.548Z,58.09
2023-04-15T23:48:34.787Z,59.24
2023-04-15T23:51:01.038Z,57.47
2023-04-15T23:53:27.269Z,56.46
2023-04-15T23:55:53.503Z,55.02
2023-04-15T23:58:19.773Z,53.97
